createdAt,value
2023-04-18T00:00:10.340Z,12.80
2023-04-18T00:02:40.137Z,12.70
2023-04-18T00:05:12.373Z,12.70
2023-04-18T00:07:41.312Z,12.70
2023-04-18T00:10:09.966Z,12.70
2023-04-18T00:12:38.542Z,12.60
2023-04-18T00:15:08.486Z,12.70
2023-04-18T00:17:38.595Z,12.70
2023-04-18T00:20:09.409Z,12.70
2023-04-18T00:22:42.539Z,12.60
2023-04-18T00:25:11.776Z,12.60
2023-04-18T00:27:40.265Z,12.60
2023-04-18T00:30:09.411Z,12.60
2023-04-18T00:32:37.925Z,12.50
2023-04-18T00:35:06.870Z,12.40
2023-04-18T00:37:35.360Z,12.30
2023-04-18T00:40:06.004Z,12.30
2023-04-18T00:42:34.380Z,12.20
2023-04-18T00:45:02.875Z,12.30
2023-04-18T00:47:31.353Z,12.20
2023-04-18T00:50:00.503Z,12.20
2023-04-18T00:52:29.058Z,12.20
2023-04-18T00:54:57.762Z,12.30
2023-04-18T00:57:27.544Z,12.30
2023-04-18T00:59:56.251Z,12.20
2023-04-18T01:02:26.482Z,12.30
2023-04-18T01:04:55.044Z,12.30
2023-04-18T01:07:23.526Z,12.20
2023-04-18T01:09:52.161Z,12.30
2023-04-18T01:12:20.614Z,12.30
2023-04-18T01:14:50.469Z,12.30
2023-04-18T01:17:19.420Z,12.30
2023-04-18T01:19:47.929Z,12.30
2023-04-18T01:22:16.599Z,12.30
2023-04-18T01:24:46.417Z,12.30
2023-04-18T01:27:15.030Z,12.30
2023-04-18T01:29:43.495Z,12.30
2023-04-18T01:32:12.126Z,12.30
2023-04-18T01:34:40.566Z,12.30
2023-04-18T01:37:09.010Z,12.30
2023-04-18T01:39:37.426Z,12.30
2023-04-18T01:42:07.232Z,12.40
2023-04-18T01:44:35.756Z,12.40
2023-04-18T01:47:04.208Z,12.30
2023-04-18T01:49:32.703Z,12.30
2023-04-18T01:52:01.080Z,12.20
2023-04-18T01:54:29.697Z,12.20
2023-04-18T01:56:58.098Z,12.30
2023-04-18T01:59:27.908Z,12.30
2023-04-18T02:01:56.430Z,12.30
2023-04-18T02:04:24.950Z,12.30
2023-04-18T02:06:53.362Z,12.40
2023-04-18T02:09:21.857Z,12.30
2023-04-18T02:11:50.393Z,12.20
2023-04-18T02:14:18.817Z,12.30
2023-04-18T02:16:48.673Z,12.30
2023-04-18T02:19:17.209Z,12.30
2023-04-18T02:21:45.711Z,12.20
2023-04-18T02:24:14.543Z,12.20
2023-04-18T02:26:43.335Z,12.10
2023-04-18T02:29:11.882Z,12.20
2023-04-18T02:31:40.856Z,12.20
2023-04-18T02:34:10.819Z,12.20
2023-04-18T02:36:39.247Z,12.20
2023-04-18T02:39:07.661Z,12.20
2023-04-18T02:41:37.730Z,12.20
2023-04-18T02:44:06.814Z,12.10
2023-04-18T02:46:35.314Z,12.20
2023-04-18T02:49:03.704Z,12.20
2023-04-18T02:51:33.497Z,12.20
2023-04-18T02:54:01.902Z,12.20
2023-04-18T02:56:30.311Z,12.10
2023-04-18T02:58:58.755Z,12.10
2023-04-18T03:01:27.291Z,12.10
2023-04-18T03:03:55.780Z,12.10
2023-04-18T03:06:24.248Z,12.10
2023-04-18T03:08:54.050Z,12.20
2023-04-18T03:11:22.563Z,12.20
2023-04-18T03:13:50.940Z,12.20
2023-04-18T03:16:19.453Z,12.20
2023-04-18T03:18:48.036Z,12.20
2023-04-18T03:21:16.487Z,12.30
2023-04-18T03:23:44.830Z,12.20
2023-04-18T03:26:14.669Z,12.20
2023-04-18T03:28:43.056Z,12.10
2023-04-18T03:31:11.612Z,12.10
2023-04-18T03:33:42.349Z,12.10
2023-04-18T03:36:11.465Z,12.10
2023-04-18T03:38:40.747Z,12.10
2023-04-18T03:41:09.148Z,12.10
2023-04-18T03:43:38.973Z,12.10
2023-04-18T03:46:07.446Z,12.20
2023-04-18T03:48:37.507Z,12.20
2023-04-18T03:51:06.886Z,12.20
2023-04-18T03:53:35.813Z,12.30
2023-04-18T03:56:04.593Z,12.20
2023-04-18T03:58:33.071Z,12.30
2023-04-18T04:01:02.921Z,12.30
2023-04-18T04:03:31.523Z,12.20
2023-04-18T04:06:00.191Z,12.40
2023-04-18T04:08:28.695Z,12.40
2023-04-18T04:10:57.115Z,12.40
2023-04-18T04:13:25.636Z,12.50
2023-04-18T04:15:54.102Z,12.50
2023-04-18T04:18:29.993Z,12.50
2023-04-18T04:20:59.119Z,12.60
2023-04-18T04:23:27.783Z,12.50
2023-04-18T04:25:56.278Z,12.60
2023-04-18T04:28:24.659Z,12.60
2023-04-18T04:30:53.349Z,12.60
2023-04-18T04:33:25.207Z,12.60
2023-04-18T04:35:53.614Z,12.70
2023-04-18T04:38:23.558Z,12.80
2023-04-18T04:40:52.976Z,12.70
2023-04-18T04:43:21.659Z,12.70
2023-04-18T04:45:51.745Z,12.70
2023-04-18T04:48:22.122Z,12.80
2023-04-18T04:50:55.713Z,12.80
2023-04-18T04:53:24.368Z,12.80
2023-04-18T04:55:52.909Z,12.80
2023-04-18T04:58:21.373Z,12.90
2023-04-18T05:00:51.088Z,12.90
2023-04-18T05:03:19.980Z,12.90
2023-04-18T05:05:48.522Z,12.90
2023-04-18T05:08:18.406Z,12.80
2023-04-18T05:10:47.704Z,12.80
2023-04-18T05:13:16.149Z,12.80
2023-04-18T05:15:44.584Z,12.80
2023-04-18T05:18:14.178Z,12.80
2023-04-18T05:20:42.601Z,12.80
2023-04-18T05:23:11.153Z,12.80
2023-04-18T05:25:41.052Z,12.80
2023-04-18T05:28:09.481Z,12.80
2023-04-18T05:30:37.957Z,12.80
2023-04-18T05:33:06.436Z,12.70
2023-04-18T05:35:34.892Z,12.80
2023-04-18T05:38:03.410Z,12.80
2023-04-18T05:40:31.846Z,12.80
2023-04-18T05:43:01.675Z,12.90
2023-04-18T05:45:30.114Z,12.90
2023-04-18T05:47:58.606Z,13.00
2023-04-18T05:50:27.123Z,13.00
2023-04-18T05:52:58.923Z,13.00
2023-04-18T05:55:27.332Z,12.90
2023-04-18T05:57:55.857Z,12.90
2023-04-18T06:00:25.868Z,12.90
2023-04-18T06:02:54.517Z,13.00
2023-04-18T06:05:23.183Z,13.10
2023-04-18T06:07:51.867Z,13.00
2023-04-18T06:10:20.409Z,13.10
2023-04-18T06:12:48.840Z,13.10
2023-04-18T06:15:17.327Z,13.20
2023-04-18T06:17:47.213Z,13.20
2023-04-18T06:20:15.846Z,13.30
2023-04-18T06:22:44.312Z,13.40
2023-04-18T06:25:12.750Z,13.50
2023-04-18T06:27:41.183Z,13.60
2023-04-18T06:30:10.085Z,13.70
2023-04-18T06:32:38.457Z,13.70
2023-04-18T06:35:08.776Z,13.80
2023-04-18T06:37:37.208Z,13.90
2023-04-18T06:40:05.948Z,13.90
2023-04-18T06:42:34.355Z,13.90
2023-04-18T06:45:03.733Z,14.00
2023-04-18T06:47:32.219Z,14.10
2023-04-18T06:50:00.887Z,14.10
2023-04-18T06:52:30.759Z,14.20
2023-04-18T06:54:59.182Z,14.10
2023-04-18T06:57:27.709Z,14.10
2023-04-18T06:59:56.128Z,14.10
2023-04-18T07:02:24.573Z,14.00
2023-04-18T07:04:53.037Z,14.00
2023-04-18T07:07:21.530Z,14.00
2023-04-18T07:09:52.839Z,13.90
2023-04-18T07:12:21.380Z,13.90
2023-04-18T07:14:49.763Z,13.90
2023-04-18T07:17:18.600Z,13.90
2023-04-18T07:19:47.121Z,14.00
2023-04-18T07:22:15.521Z,14.00
2023-04-18T07:24:44.229Z,14.00
2023-04-18T07:27:14.141Z,14.10
2023-04-18T07:29:42.613Z,14.10
2023-04-18T07:32:11.697Z,14.10
2023-04-18T07:34:40.419Z,14.10
2023-04-18T07:37:08.923Z,14.00
2023-04-18T07:39:37.407Z,14.00
2023-04-18T07:42:06.125Z,13.90
2023-04-18T07:44:36.719Z,14.00
2023-04-18T07:47:05.186Z,14.00
2023-04-18T07:49:33.577Z,14.00
2023-04-18T07:52:02.055Z,14.00
2023-04-18T07:54:30.676Z,14.00
2023-04-18T07:57:00.077Z,14.00
2023-04-18T07:59:28.563Z,14.00
2023-04-18T08:01:58.494Z,14.00
2023-04-18T08:04:29.796Z,14.10
2023-04-18T08:06:58.694Z,14.00
2023-04-18T08:09:27.183Z,14.00
2023-04-18T08:11:57.981Z,14.00
2023-04-18T08:14:26.454Z,14.00
2023-04-18T08:16:54.992Z,14.10
2023-04-18T08:19:24.900Z,14.00
2023-04-18T08:21:53.321Z,14.10
2023-04-18T08:24:21.775Z,14.10
2023-04-18T08:26:50.221Z,14.10
2023-04-18T08:29:18.652Z,14.10
2023-04-18T08:31:47.176Z,14.20
2023-04-18T08:34:15.642Z,14.20
2023-04-18T08:36:45.880Z,14.20
2023-04-18T08:39:14.821Z,14.30
2023-04-18T08:41:44.117Z,14.30
2023-04-18T08:44:13.073Z,14.40
2023-04-18T08:46:41.838Z,14.40
2023-04-18T08:49:11.870Z,14.40
2023-04-18T08:51:41.711Z,14.30
2023-04-18T08:54:12.402Z,14.30
2023-04-18T08:56:40.992Z,14.30
2023-04-18T08:59:09.645Z,14.40
2023-04-18T09:01:56.756Z,14.50
2023-04-18T09:04:35.505Z,14.40
2023-04-18T09:07:04.335Z,14.40
2023-04-18T09:09:50.470Z,14.40
2023-04-18T09:12:22.794Z,14.30
2023-04-18T09:14:51.855Z,14.40
2023-04-18T09:17:32.752Z,14.30
2023-04-18T09:20:01.595Z,14.30
2023-04-18T09:22:46.270Z,14.40
2023-04-18T09:25:24.950Z,14.50
2023-04-18T09:27:54.983Z,14.40
2023-04-18T09:30:33.468Z,14.40
2023-04-18T09:33:04.931Z,14.40
2023-04-18T09:35:33.453Z,14.40
2023-04-18T09:38:02.018Z,14.40
2023-04-18T09:40:30.525Z,14.40
2023-04-18T09:43:00.710Z,14.50
2023-04-18T09:45:29.218Z,14.60
2023-04-18T09:47:58.452Z,14.70
2023-04-18T09:50:26.977Z,14.70
2023-04-18T09:52:56.298Z,14.70
2023-04-18T09:55:24.838Z,14.80
2023-04-18T09:57:54.150Z,14.80
2023-04-18T10:00:25.493Z,14.90
2023-04-18T10:02:56.372Z,15.00
2023-04-18T10:05:26.562Z,15.00
2023-04-18T10:07:55.430Z,15.00
2023-04-18T10:10:24.234Z,14.90
2023-04-18T10:12:54.472Z,15.00
2023-04-18T10:15:25.505Z,15.10
2023-04-18T10:20:27.902Z,15.30
2023-04-18T10:22:57.236Z,15.50
2023-04-18T10:25:40.486Z,15.50
2023-04-18T10:28:09.332Z,15.60
2023-04-18T10:30:52.779Z,15.60
2023-04-18T10:33:30.297Z,15.60
2023-04-18T10:36:21.437Z,15.70
2023-04-18T10:38:51.120Z,15.80
2023-04-18T10:41:26.741Z,15.80
2023-04-18T10:44:28.211Z,15.70
2023-04-18T10:47:15.014Z,15.80
2023-04-18T10:49:54.074Z,15.80
2023-04-18T10:52:22.475Z,15.70
2023-04-18T10:54:55.172Z,15.70
2023-04-18T10:57:24.440Z,15.70
2023-04-18T10:59:54.797Z,15.60
2023-04-18T11:02:28.888Z,15.60
2023-04-18T11:04:59.438Z,15.80
2023-04-18T11:07:34.537Z,15.90
2023-04-18T11:10:03.195Z,15.90
2023-04-18T11:12:33.213Z,15.80
2023-04-18T11:15:03.981Z,15.70
2023-04-18T11:17:34.836Z,15.90
2023-04-18T11:20:09.321Z,16.10
2023-04-18T11:22:47.766Z,16.20
2023-04-18T11:25:16.443Z,16.30
2023-04-18T11:27:45.501Z,16.30
2023-04-18T11:30:14.501Z,16.20
2023-04-18T11:32:43.089Z,16.00
2023-04-18T11:35:13.992Z,16.00
2023-04-18T11:37:43.114Z,16.20
2023-04-18T11:40:12.237Z,16.30
2023-04-18T11:42:41.547Z,16.30
2023-04-18T11:45:11.231Z,16.30
2023-04-18T11:47:40.246Z,16.20
2023-04-18T11:50:09.617Z,16.00
2023-04-18T11:52:41.151Z,15.80
2023-04-18T11:55:17.710Z,15.80
2023-04-18T11:57:53.031Z,15.90
2023-04-18T12:00:30.982Z,16.10
2023-04-18T12:02:59.989Z,16.30
2023-04-18T12:05:29.260Z,16.10
2023-04-18T12:08:06.220Z,15.90
2023-04-18T12:10:35.953Z,16.10
2023-04-18T12:13:07.255Z,16.00
2023-04-18T12:15:38.923Z,15.70
2023-04-18T12:18:08.682Z,15.60
2023-04-18T12:20:38.021Z,15.60
2023-04-18T12:23:08.052Z,15.70
2023-04-18T12:25:36.674Z,15.70
2023-04-18T12:28:14.032Z,15.70
2023-04-18T12:30:43.173Z,15.60
2023-04-18T12:33:11.593Z,15.70
2023-04-18T12:35:40.081Z,15.70
2023-04-18T12:38:09.866Z,15.70
2023-04-18T12:40:39.477Z,15.60
2023-04-18T12:43:08.080Z,15.70
2023-04-18T12:45:36.478Z,15.70
2023-04-18T12:48:05.135Z,15.70
2023-04-18T12:50:33.962Z,15.80
2023-04-18T12:53:02.932Z,15.90
2023-04-18T12:55:32.876Z,15.90
2023-04-18T12:58:01.286Z,15.90
2023-04-18T13:00:31.301Z,15.90
2023-04-18T13:03:01.100Z,15.90
2023-04-18T13:05:33.005Z,15.80
2023-04-18T13:10:34.560Z,15.70
2023-04-18T13:13:03.295Z,15.70
2023-04-18T13:15:31.794Z,15.80
2023-04-18T13:18:04.924Z,15.90
2023-04-18T13:20:34.120Z,15.80
2023-04-18T13:23:04.702Z,15.60
2023-04-18T13:25:35.562Z,15.70
2023-04-18T13:28:04.785Z,15.90
2023-04-18T13:30:35.985Z,16.00
2023-04-18T13:33:07.485Z,16.00
2023-04-18T13:35:37.102Z,15.80
2023-04-18T13:38:05.602Z,15.90
2023-04-18T13:40:36.248Z,15.90
2023-04-18T13:43:05.185Z,16.00
2023-04-18T13:45:33.757Z,16.00
2023-04-18T13:48:02.930Z,15.90
2023-04-18T13:50:31.564Z,15.80
2023-04-18T13:53:00.480Z,15.50
2023-04-18T13:55:29.746Z,15.40
2023-04-18T13:58:00.129Z,15.40
2023-04-18T14:00:29.064Z,15.50
2023-04-18T14:02:57.835Z,15.50
2023-04-18T14:05:26.726Z,15.60
2023-04-18T14:08:01.950Z,15.70
2023-04-18T14:10:31.536Z,15.60
2023-04-18T14:13:01.706Z,15.60
2023-04-18T14:15:30.851Z,15.40
2023-04-18T14:17:59.432Z,15.30
2023-04-18T14:20:34.278Z,15.20
2023-04-18T14:23:03.080Z,15.20
2023-04-18T14:25:31.615Z,15.20
2023-04-18T14:28:09.239Z,15.20
2023-04-18T14:30:38.280Z,15.20
2023-04-18T14:33:06.957Z,15.00
2023-04-18T14:35:35.567Z,15.00
2023-04-18T14:38:04.131Z,14.90
2023-04-18T14:40:33.107Z,14.80
2023-04-18T14:43:04.217Z,14.90
2023-04-18T14:45:35.023Z,14.80
2023-04-18T14:48:03.680Z,14.80
2023-04-18T14:50:32.375Z,14.70
2023-04-18T14:53:01.221Z,14.80
2023-04-18T14:55:29.617Z,14.90
2023-04-18T14:57:58.360Z,14.90
2023-04-18T15:00:27.174Z,15.00
2023-04-18T15:02:59.003Z,15.00
2023-04-18T15:05:27.934Z,15.00
2023-04-18T15:07:56.436Z,15.00
2023-04-18T15:10:25.004Z,15.10
2023-04-18T15:12:53.365Z,15.20
2023-04-18T15:15:22.758Z,15.20
2023-04-18T15:17:51.631Z,15.30
2023-04-18T15:20:23.870Z,15.30
2023-04-18T15:22:53.212Z,15.30
2023-04-18T15:25:21.603Z,15.40
2023-04-18T15:27:50.206Z,15.40
2023-04-18T15:30:18.655Z,15.40
2023-04-18T15:32:47.688Z,15.50
2023-04-18T15:35:16.179Z,15.30
2023-04-18T15:37:45.977Z,15.20
2023-04-18T15:40:16.298Z,15.10
2023-04-18T15:42:45.047Z,15.10
2023-04-18T15:45:13.563Z,15.10
2023-04-18T15:47:42.069Z,15.10
2023-04-18T15:50:11.105Z,15.00
2023-04-18T15:52:40.949Z,14.90
2023-04-18T15:55:13.522Z,14.80
2023-04-18T15:57:42.131Z,14.90
2023-04-18T16:00:15.888Z,14.80
2023-04-18T16:02:45.481Z,14.80
2023-04-18T16:05:17.475Z,14.80
2023-04-18T16:07:46.448Z,14.70
2023-04-18T16:10:16.366Z,14.70
2023-04-18T16:12:45.106Z,14.70
2023-04-18T16:15:14.347Z,14.70
2023-04-18T16:17:42.848Z,14.70
2023-04-18T16:20:11.782Z,14.60
2023-04-18T16:22:40.607Z,14.70
2023-04-18T16:25:10.227Z,14.70
2023-04-18T16:27:40.327Z,14.70
2023-04-18T16:30:10.082Z,14.70
2023-04-18T16:32:39.234Z,14.60
2023-04-18T16:35:11.313Z,14.60
2023-04-18T16:37:40.606Z,14.60
2023-04-18T16:40:10.214Z,14.50
2023-04-18T16:42:41.160Z,14.50
2023-04-18T16:45:10.321Z,14.50
2023-04-18T16:47:38.794Z,14.50
2023-04-18T16:50:08.171Z,14.50
2023-04-18T16:52:36.578Z,14.50
2023-04-18T16:55:05.198Z,14.50
2023-04-18T16:57:33.680Z,14.50
2023-04-18T17:00:04.411Z,14.50
2023-04-18T17:02:32.869Z,14.60
2023-04-18T17:05:01.429Z,14.60
2023-04-18T17:07:30.422Z,14.40
2023-04-18T17:09:58.853Z,14.40
2023-04-18T17:12:27.335Z,14.40
2023-04-18T17:14:55.768Z,14.30
2023-04-18T17:17:25.612Z,14.20
2023-04-18T17:19:54.102Z,14.30
2023-04-18T17:22:22.464Z,14.20
2023-04-18T17:24:50.846Z,14.20
2023-04-18T17:27:19.266Z,14.30
2023-04-18T17:29:47.707Z,14.30
2023-04-18T17:32:16.126Z,14.20
2023-04-18T17:34:45.910Z,14.30
2023-04-18T17:37:14.864Z,14.20
2023-04-18T17:39:43.280Z,14.20
2023-04-18T17:42:11.840Z,14.20
2023-04-18T17:44:40.234Z,14.20
2023-04-18T17:47:08.726Z,14.20
2023-04-18T17:49:37.131Z,14.10
2023-04-18T17:52:06.993Z,14.10
2023-04-18T17:54:35.415Z,14.10
2023-04-18T17:57:03.918Z,14.10
2023-04-18T17:59:37.652Z,14.10
2023-04-18T18:02:06.343Z,14.10
2023-04-18T18:04:35.148Z,14.10
2023-04-18T18:07:04.177Z,14.10
2023-04-18T18:09:33.990Z,14.00
2023-04-18T18:12:02.573Z,14.10
2023-04-18T18:14:31.119Z,14.00
2023-04-18T18:16:59.608Z,14.10
2023-04-18T18:19:27.989Z,14.00
2023-04-18T18:21:56.347Z,14.10
2023-04-18T18:24:26.263Z,14.00
2023-04-18T18:26:56.402Z,14.00
2023-04-18T18:29:24.884Z,14.00
2023-04-18T18:31:53.262Z,13.90
2023-04-18T18:34:21.963Z,13.90
2023-04-18T18:36:50.379Z,14.00
2023-04-18T18:39:18.815Z,14.00
2023-04-18T18:41:47.267Z,14.10
2023-04-18T18:44:17.020Z,14.10
2023-04-18T18:46:45.487Z,14.00
2023-04-18T18:49:14.182Z,14.10
2023-04-18T18:51:44.480Z,14.00
2023-04-18T18:54:13.235Z,14.00
2023-04-18T18:56:42.767Z,14.10
2023-04-18T18:59:11.264Z,14.10
2023-04-18T19:01:41.683Z,14.00
2023-04-18T19:04:10.886Z,13.90
2023-04-18T19:06:39.413Z,13.90
2023-04-18T19:09:10.733Z,13.90
2023-04-18T19:11:39.174Z,13.90
2023-04-18T19:14:07.981Z,13.90
2023-04-18T19:16:37.414Z,13.90
2023-04-18T19:19:11.515Z,13.90
2023-04-18T19:21:46.146Z,14.00
2023-04-18T19:24:15.280Z,13.90
2023-04-18T19:26:44.197Z,13.90
2023-04-18T19:29:21.741Z,13.90
2023-04-18T19:31:51.882Z,13.90
2023-04-18T19:34:22.975Z,14.00
2023-04-18T19:36:51.921Z,14.00
2023-04-18T19:39:20.956Z,14.10
2023-04-18T19:41:49.717Z,14.00
2023-04-18T19:44:18.536Z,14.00
2023-04-18T19:46:47.602Z,14.00
2023-04-18T19:49:16.975Z,13.90
2023-04-18T19:51:47.499Z,13.90
2023-04-18T19:54:16.914Z,13.90
2023-04-18T19:56:45.682Z,13.90
2023-04-18T19:59:14.850Z,13.90
2023-04-18T20:01:43.493Z,14.00
2023-04-18T20:04:11.986Z,14.00
2023-04-18T20:06:40.694Z,14.00
2023-04-18T20:09:18.163Z,14.00
2023-04-18T20:11:48.498Z,14.00
2023-04-18T20:14:16.984Z,13.90
2023-04-18T20:16:46.709Z,14.00
2023-04-18T20:19:16.066Z,13.90
2023-04-18T20:21:44.684Z,13.90
2023-04-18T20:24:15.691Z,13.80
2023-04-18T20:26:44.173Z,13.90
2023-04-18T20:29:12.730Z,13.90
2023-04-18T20:31:42.379Z,13.90
2023-04-18T20:34:11.030Z,13.90
2023-04-18T20:36:41.611Z,13.80
2023-04-18T20:39:10.114Z,13.80
2023-04-18T20:41:46.648Z,13.80
2023-04-18T20:44:15.112Z,13.80
2023-04-18T20:46:43.990Z,13.80
2023-04-18T20:49:12.753Z,13.80
2023-04-18T20:51:41.298Z,13.90
2023-04-18T20:54:09.667Z,13.90
2023-04-18T20:56:39.478Z,13.90
2023-04-18T20:59:07.847Z,13.90
2023-04-18T21:01:37.158Z,13.80
2023-04-18T21:04:06.134Z,13.80
2023-04-18T21:06:35.042Z,13.80
2023-04-18T21:09:03.914Z,13.70
2023-04-18T21:11:32.425Z,13.70
2023-04-18T21:14:03.829Z,13.70
2023-04-18T21:16:32.239Z,13.60
2023-04-18T21:19:00.609Z,13.60
2023-04-18T21:21:29.929Z,13.60
2023-04-18T21:23:58.573Z,13.60
2023-04-18T21:26:27.253Z,13.50
2023-04-18T21:28:57.370Z,13.50
2023-04-18T21:31:27.908Z,13.50
2023-04-18T21:33:57.098Z,13.40
2023-04-18T21:36:26.528Z,13.40
2023-04-18T21:38:55.100Z,13.40
2023-04-18T21:41:24.086Z,13.40
2023-04-18T21:43:52.694Z,13.30
2023-04-18T21:46:21.412Z,13.30
2023-04-18T21:48:51.315Z,13.30
2023-04-18T21:51:19.680Z,13.30
2023-04-18T21:53:48.129Z,13.30
2023-04-18T21:56:17.556Z,13.30
2023-04-18T21:58:46.321Z,13.30
2023-04-18T22:01:14.913Z,13.40
2023-04-18T22:03:43.839Z,13.40
2023-04-18T22:06:13.772Z,13.40
2023-04-18T22:08:43.275Z,13.60
2023-04-18T22:11:13.690Z,13.50
2023-04-18T22:13:45.885Z,13.50
2023-04-18T22:16:14.453Z,13.50
2023-04-18T22:18:45.965Z,13.40
2023-04-18T22:21:16.187Z,13.40
2023-04-18T22:23:44.715Z,13.30
2023-04-18T22:26:13.152Z,13.30
2023-04-18T22:28:41.625Z,13.30
2023-04-18T22:31:10.147Z,13.20
2023-04-18T22:33:38.636Z,13.20
2023-04-18T22:36:07.413Z,13.20
2023-04-18T22:38:37.179Z,13.20
2023-04-18T22:41:05.708Z,13.10
2023-04-18T22:43:34.134Z,13.10
2023-04-18T22:46:02.595Z,13.20
2023-04-18T22:48:31.213Z,13.20
2023-04-18T22:51:01.759Z,13.20
2023-04-18T22:53:30.151Z,13.20
2023-04-18T22:56:00.038Z,13.20
2023-04-18T22:58:28.438Z,13.10
2023-04-18T23:00:56.813Z,13.10
2023-04-18T23:03:25.290Z,13.10
2023-04-18T23:05:53.855Z,13.10
2023-04-18T23:08:22.737Z,13.10
2023-04-18T23:10:51.309Z,13.10
2023-04-18T23:13:21.123Z,13.10
2023-04-18T23:15:49.540Z,13.10
2023-04-18T23:18:18.020Z,13.10
2023-04-18T23:20:46.468Z,13.10
2023-04-18T23:23:14.947Z,13.20
2023-04-18T23:25:44.239Z,13.20
2023-04-18T23:28:13.602Z,13.20
2023-04-18T23:30:43.479Z,13.20
2023-04-18T23:33:11.877Z,13.10
2023-04-18T23:35:40.361Z,13.20
2023-04-18T23:38:08.922Z,13.10
2023-04-18T23:40:37.341Z,13.20
2023-04-18T23:43:05.986Z,13.20
2023-04-18T23:45:34.391Z,13.20
2023-04-18T23:48:04.275Z,13.20
2023-04-18T23:50:32.772Z,13.20
2023-04-18T23:53:01.200Z,13.20
2023-04-18T23:55:29.701Z,13.20
2023-04-18T23:57:58.092Z,13.20
